createdAt,value
2017-01-07T00:01:09.044Z,99.99
2017-01-07T00:02:19.752Z,99.99
2017-01-07T00:03:30.466Z,99.99
2017-01-07T00:04:41.183Z,99.99
2017-01-07T00:05:51.879Z,99.99
2017-01-07T00:07:02.608Z,99.99
2017-01-07T00:08:13.325Z,99.99
2017-01-07T00:09:24.020Z,99.99
2017-01-07T00:10:34.742Z,99.99
2017-01-07T00:11:45.484Z,99.99
2017-01-07T00:12:56.180Z,99.99
2017-01-07T00:14:06.904Z,99.99
2017-01-07T00:15:17.597Z,99.99
2017-01-07T00:16:28.301Z,99.99
2017-01-07T00:17:39.026Z,99.99
2017-01-07T00:18:49.722Z,99.99
2017-01-07T00:20:00.442Z,99.99
2017-01-07T00:21:11.161Z,99.99
2017-01-07T00:22:21.884Z,99.99
2017-01-07T00:23:32.598Z,99.99
2017-01-07T00:24:43.301Z,99.99
2017-01-07T00:25:54.022Z,99.99
2017-01-07T00:27:04.745Z,99.99
2017-01-07T00:28:15.478Z,99.99
2017-01-07T00:29:26.184Z,99.99
2017-01-07T00:30:36.906Z,99.99
2017-01-07T00:31:47.628Z,99.99
2017-01-07T00:32:58.345Z,99.99
2017-01-07T00:34:09.059Z,99.99
2017-01-07T00:35:19.782Z,99.99
2017-01-07T00:36:30.525Z,99.99
2017-01-07T00:37:41.203Z,99.99
2017-01-07T00:38:51.895Z,99.99
2017-01-07T00:40:02.601Z,99.99
2017-01-07T00:41:13.313Z,99.99
2017-01-07T00:42:24.055Z,99.99
2017-01-07T00:43:34.758Z,99.99
2017-01-07T00:44:45.505Z,99.99
2017-01-07T00:45:56.221Z,99.99
2017-01-07T00:47:06.950Z,99.99
2017-01-07T00:48:17.994Z,99.99
2017-01-07T00:49:28.706Z,99.99
2017-01-07T00:50:39.386Z,99.99
2017-01-07T00:51:50.132Z,99.99
2017-01-07T00:53:00.871Z,99.99
2017-01-07T00:54:11.596Z,99.99
2017-01-07T00:55:22.287Z,99.99
2017-01-07T00:56:33.012Z,99.99
2017-01-07T00:57:43.740Z,99.99
2017-01-07T00:58:54.429Z,99.99
2017-01-07T01:00:05.177Z,99.99
2017-01-07T01:01:15.896Z,99.99
2017-01-07T01:02:26.616Z,99.99
2017-01-07T01:03:37.312Z,99.99
2017-01-07T01:04:48.033Z,99.99
2017-01-07T01:05:58.776Z,99.99
2017-01-07T01:07:09.500Z,99.99
2017-01-07T01:08:20.239Z,99.99
2017-01-07T01:09:30.935Z,99.99
2017-01-07T01:10:41.666Z,99.99
2017-01-07T01:11:52.391Z,99.99
2017-01-07T01:13:03.101Z,99.99
2017-01-07T01:14:13.846Z,99.99
2017-01-07T01:15:24.564Z,99.99
2017-01-07T01:16:35.288Z,99.99
2017-01-07T01:17:46.018Z,99.99
2017-01-07T01:18:56.730Z,99.99
2017-01-07T01:20:07.459Z,99.99
2017-01-07T01:21:18.179Z,99.99
2017-01-07T01:22:28.893Z,99.99
2017-01-07T01:23:39.625Z,99.99
2017-01-07T01:24:50.356Z,99.99
2017-01-07T01:26:01.059Z,99.99
2017-01-07T01:27:11.749Z,99.99
2017-01-07T01:28:22.451Z,99.99
2017-01-07T01:29:33.177Z,99.99
2017-01-07T01:30:43.918Z,99.99
2017-01-07T01:31:54.989Z,99.99
2017-01-07T01:33:05.686Z,99.99
2017-01-07T01:34:16.385Z,99.99
2017-01-07T01:35:27.080Z,99.99
2017-01-07T01:36:37.823Z,99.99
2017-01-07T01:37:48.519Z,99.99
2017-01-07T01:38:59.235Z,99.99
2017-01-07T01:40:09.963Z,99.99
2017-01-07T01:41:20.660Z,99.99
2017-01-07T01:42:31.394Z,99.99
2017-01-07T01:43:42.119Z,99.99
2017-01-07T01:44:52.844Z,99.99
2017-01-07T01:46:03.539Z,99.99
2017-01-07T01:47:14.289Z,99.99
2017-01-07T01:48:25.009Z,99.99
2017-01-07T01:49:35.731Z,99.99
2017-01-07T01:50:46.441Z,99.99
2017-01-07T01:51:57.137Z,99.99
2017-01-07T01:53:07.843Z,99.99
2017-01-07T01:54:18.578Z,99.99
2017-01-07T01:55:29.275Z,99.99
2017-01-07T01:56:39.978Z,99.99
2017-01-07T01:57:50.699Z,99.99
2017-01-07T01:59:01.424Z,99.99
2017-01-07T02:00:12.162Z,99.99
2017-01-07T02:01:22.887Z,99.99
2017-01-07T02:02:33.608Z,99.99
2017-01-07T02:03:44.372Z,99.99
2017-01-07T02:04:55.077Z,99.99
2017-01-07T02:06:05.799Z,99.99
2017-01-07T02:07:16.521Z,99.99
2017-01-07T02:08:27.242Z,99.99
2017-01-07T02:09:37.962Z,99.99
2017-01-07T02:10:48.701Z,99.99
2017-01-07T02:11:59.418Z,99.99
2017-01-07T02:13:10.122Z,99.99
2017-01-07T02:14:20.847Z,99.99
2017-01-07T02:15:31.567Z,99.99
2017-01-07T02:16:42.276Z,99.99
2017-01-07T02:17:53.000Z,99.99
2017-01-07T02:19:04.111Z,99.99
2017-01-07T02:20:14.843Z,99.99
2017-01-07T02:21:25.561Z,99.99
2017-01-07T02:22:36.256Z,99.99
2017-01-07T02:23:46.987Z,99.99
2017-01-07T02:24:57.735Z,99.99
2017-01-07T02:26:08.458Z,99.99
2017-01-07T02:27:19.175Z,99.99
2017-01-07T02:28:29.903Z,99.99
2017-01-07T02:29:40.596Z,99.99
2017-01-07T02:30:51.332Z,99.99
2017-01-07T02:32:02.057Z,99.99
2017-01-07T02:33:12.777Z,99.99
2017-01-07T02:34:23.477Z,99.99
2017-01-07T02:35:34.190Z,99.99
2017-01-07T02:36:44.908Z,99.99
2017-01-07T02:37:55.608Z,99.99
2017-01-07T02:39:06.307Z,99.99
2017-01-07T02:40:17.032Z,99.99
2017-01-07T02:41:27.752Z,99.99
2017-01-07T02:42:38.842Z,99.99
2017-01-07T02:43:49.947Z,99.99
2017-01-07T02:45:00.666Z,99.99
2017-01-07T02:46:11.367Z,99.99
2017-01-07T02:47:22.054Z,99.99
2017-01-07T02:48:33.142Z,99.99
2017-01-07T02:49:43.872Z,99.99
2017-01-07T02:50:54.592Z,99.99
2017-01-07T02:52:05.317Z,99.99
2017-01-07T02:53:16.007Z,99.99
2017-01-07T02:54:26.705Z,99.99
2017-01-07T02:55:37.418Z,99.99
2017-01-07T02:56:48.139Z,99.99
2017-01-07T02:57:58.843Z,99.99
2017-01-07T02:59:09.606Z,99.99
2017-01-07T03:00:20.316Z,99.99
2017-01-07T03:01:31.032Z,99.99
2017-01-07T03:02:41.751Z,99.99
2017-01-07T03:03:52.466Z,99.99
2017-01-07T03:05:03.164Z,99.99
2017-01-07T03:06:13.885Z,99.99
2017-01-07T03:07:24.628Z,99.99
2017-01-07T03:08:35.352Z,99.99
2017-01-07T03:09:46.077Z,99.99
2017-01-07T03:10:56.774Z,99.99
2017-01-07T03:12:07.486Z,99.99
2017-01-07T03:13:18.212Z,99.99
2017-01-07T03:14:28.932Z,99.99
2017-01-07T03:15:39.653Z,99.99
2017-01-07T03:16:50.371Z,99.99
2017-01-07T03:18:01.070Z,99.99
2017-01-07T03:19:12.173Z,99.99
2017-01-07T03:20:22.896Z,99.99
2017-01-07T03:21:33.612Z,99.99
2017-01-07T03:22:44.325Z,99.99
2017-01-07T03:23:55.051Z,99.99
2017-01-07T03:25:05.755Z,99.99
2017-01-07T03:26:16.482Z,99.99
2017-01-07T03:27:27.169Z,99.99
2017-01-07T03:28:37.892Z,99.99
2017-01-07T03:29:48.606Z,99.99
2017-01-07T03:30:59.349Z,99.99
2017-01-07T03:32:10.080Z,99.99
2017-01-07T03:33:20.773Z,99.99
2017-01-07T03:34:31.490Z,99.99
2017-01-07T03:35:42.236Z,99.99
2017-01-07T03:36:52.939Z,99.99
2017-01-07T03:38:03.649Z,99.99
2017-01-07T03:39:14.370Z,99.99
2017-01-07T03:40:25.067Z,99.99
2017-01-07T03:41:35.773Z,99.99
2017-01-07T03:42:46.496Z,99.99
2017-01-07T03:43:57.212Z,99.99
2017-01-07T03:45:07.929Z,99.99
2017-01-07T03:46:18.625Z,99.99
2017-01-07T03:47:29.364Z,99.99
2017-01-07T03:48:40.076Z,99.99
2017-01-07T03:49:51.211Z,99.99
2017-01-07T03:51:01.917Z,99.99
2017-01-07T03:52:12.627Z,99.99
2017-01-07T03:53:23.326Z,99.99
2017-01-07T03:54:34.027Z,99.99
2017-01-07T03:55:44.727Z,99.99
2017-01-07T03:56:55.462Z,99.99
2017-01-07T03:58:06.167Z,99.99
2017-01-07T03:59:16.879Z,99.99
2017-01-07T04:00:27.583Z,99.99
2017-01-07T04:01:38.297Z,99.99
2017-01-07T04:02:49.019Z,99.99
2017-01-07T04:03:59.692Z,99.99
2017-01-07T04:05:10.397Z,99.99
2017-01-07T04:06:21.121Z,99.99
2017-01-07T04:07:31.858Z,99.99
2017-01-07T04:08:42.598Z,99.99
2017-01-07T04:09:53.279Z,99.99
2017-01-07T04:11:03.991Z,99.99
2017-01-07T04:12:14.702Z,99.99
2017-01-07T04:13:25.391Z,99.99
2017-01-07T04:14:36.131Z,99.99
2017-01-07T04:15:46.828Z,99.99
2017-01-07T04:16:57.549Z,99.99
2017-01-07T04:18:08.296Z,99.99
2017-01-07T04:19:19.016Z,99.99
2017-01-07T04:20:29.758Z,99.99
2017-01-07T04:21:40.456Z,99.99
2017-01-07T04:22:51.163Z,99.99
2017-01-07T04:24:01.875Z,99.99
2017-01-07T04:25:12.576Z,99.99
2017-01-07T04:26:23.304Z,99.93
2017-01-07T04:27:34.018Z,99.55
2017-01-07T04:28:44.718Z,99.93
2017-01-07T04:29:55.435Z,99.99
2017-01-07T04:31:06.156Z,99.93
2017-01-07T04:32:16.880Z,99.93
2017-01-07T04:33:27.577Z,99.55
2017-01-07T04:34:38.697Z,99.99
2017-01-07T04:35:49.420Z,99.83
2017-01-07T04:37:00.129Z,99.83
2017-01-07T04:38:10.826Z,99.99
2017-01-07T04:39:21.550Z,99.99
2017-01-07T04:40:32.279Z,99.99
2017-01-07T04:41:42.971Z,99.83
2017-01-07T04:42:53.674Z,99.93
2017-01-07T04:44:04.370Z,99.83
2017-01-07T04:45:15.091Z,99.74
2017-01-07T04:46:25.809Z,99.64
2017-01-07T04:47:36.522Z,99.45
2017-01-07T04:48:47.227Z,99.45
2017-01-07T04:49:57.940Z,99.55
2017-01-07T04:51:08.661Z,99.36
2017-01-07T04:52:19.407Z,99.17
2017-01-07T04:53:30.135Z,99.26
2017-01-07T04:54:40.857Z,99.08
2017-01-07T04:55:51.582Z,99.45
2017-01-07T04:57:02.298Z,99.93
2017-01-07T04:58:13.041Z,99.93
2017-01-07T04:59:23.759Z,99.45
2017-01-07T05:00:34.505Z,99.36
2017-01-07T05:01:45.236Z,99.74
2017-01-07T05:02:55.943Z,99.83
2017-01-07T05:04:06.667Z,99.36
2017-01-07T05:05:17.393Z,99.45
2017-01-07T05:06:28.110Z,99.26
2017-01-07T05:07:38.806Z,99.36
2017-01-07T05:08:49.531Z,99.36
2017-01-07T05:10:00.277Z,98.98
2017-01-07T05:11:10.994Z,98.89
2017-01-07T05:12:21.729Z,99.45
2017-01-07T05:13:32.445Z,99.26
2017-01-07T05:14:43.153Z,98.89
2017-01-07T05:15:53.882Z,98.79
2017-01-07T05:17:04.604Z,98.6
2017-01-07T05:18:15.331Z,99.55
2017-01-07T05:19:26.071Z,98.79
2017-01-07T05:20:36.788Z,99.26
2017-01-07T05:21:47.509Z,98.79
2017-01-07T05:22:58.238Z,99.55
2017-01-07T05:24:08.976Z,98.7
2017-01-07T05:25:19.719Z,98.7
2017-01-07T05:26:30.443Z,98.7
2017-01-07T05:27:41.160Z,98.51
2017-01-07T05:28:51.856Z,98.41
2017-01-07T05:30:02.560Z,98.23
2017-01-07T05:31:13.256Z,98.51
2017-01-07T05:32:23.959Z,98.6
2017-01-07T05:33:34.672Z,98.7
2017-01-07T05:34:45.393Z,98.51
2017-01-07T05:35:56.114Z,98.04
2017-01-07T05:37:06.832Z,98.41
2017-01-07T05:38:17.557Z,98.23
2017-01-07T05:39:28.307Z,97.94
2017-01-07T05:40:39.048Z,98.32
2017-01-07T05:41:49.791Z,98.51
2017-01-07T05:43:00.508Z,98.41
2017-01-07T05:44:11.204Z,98.32
2017-01-07T05:45:21.908Z,98.04
2017-01-07T05:46:32.624Z,97.75
2017-01-07T05:47:43.370Z,97.47
2017-01-07T05:48:54.092Z,98.41
2017-01-07T05:50:04.812Z,98.23
2017-01-07T05:51:15.531Z,98.13
2017-01-07T05:52:26.247Z,98.98
2017-01-07T05:53:37.337Z,98.13
2017-01-07T05:54:48.051Z,98.04
2017-01-07T05:55:58.765Z,98.13
2017-01-07T05:57:09.463Z,98.13
2017-01-07T05:58:20.167Z,98.7
2017-01-07T05:59:30.887Z,98.41
2017-01-07T06:00:41.601Z,98.51
2017-01-07T06:01:52.723Z,98.23
2017-01-07T06:03:03.425Z,98.41
2017-01-07T06:04:14.149Z,98.23
2017-01-07T06:05:24.865Z,98.13
2017-01-07T06:06:35.586Z,97.94
2017-01-07T06:07:46.311Z,97.85
2017-01-07T06:08:57.032Z,97.09
2017-01-07T06:10:07.780Z,97.28
2017-01-07T06:11:18.524Z,97.56
2017-01-07T06:12:29.212Z,97
2017-01-07T06:13:39.905Z,97
2017-01-07T06:14:50.601Z,97
2017-01-07T06:16:01.310Z,97.19
2017-01-07T06:17:12.046Z,97.38
2017-01-07T06:18:22.764Z,97
2017-01-07T06:19:33.492Z,97.09
2017-01-07T06:20:44.235Z,96.62
2017-01-07T06:21:54.955Z,96.53
2017-01-07T06:23:05.684Z,96.44
2017-01-07T06:24:16.398Z,96.44
2017-01-07T06:25:27.126Z,96.25
2017-01-07T06:26:37.861Z,97.09
2017-01-07T06:27:48.565Z,96.44
2017-01-07T06:28:59.266Z,97.09
2017-01-07T06:30:09.977Z,97
2017-01-07T06:31:20.695Z,96.81
2017-01-07T06:32:31.420Z,96.53
2017-01-07T06:33:42.145Z,96.25
2017-01-07T06:34:52.837Z,96.25
2017-01-07T06:36:03.574Z,96.15
2017-01-07T06:37:14.286Z,95.97
2017-01-07T06:38:25.008Z,95.97
2017-01-07T06:39:35.717Z,95.97
2017-01-07T06:40:46.427Z,96.25
2017-01-07T06:41:57.145Z,96.34
2017-01-07T06:43:07.887Z,96.25
2017-01-07T06:44:18.653Z,95.68
2017-01-07T06:45:29.382Z,95.87
2017-01-07T06:46:40.103Z,96.34
2017-01-07T06:47:50.826Z,96.25
2017-01-07T06:49:01.550Z,96.72
2017-01-07T06:50:12.255Z,96.34
2017-01-07T06:51:22.990Z,95.87
2017-01-07T06:52:33.710Z,96.25
2017-01-07T06:53:44.409Z,96.62
2017-01-07T06:54:55.092Z,96.72
2017-01-07T06:56:05.822Z,96.44
2017-01-07T06:57:16.913Z,96.53
2017-01-07T06:58:27.613Z,96.62
2017-01-07T06:59:38.322Z,96.91
2017-01-07T07:00:49.046Z,96.72
2017-01-07T07:01:59.773Z,96.81
2017-01-07T07:03:10.471Z,96.91
2017-01-07T07:04:21.218Z,96.91
2017-01-07T07:05:31.956Z,97.19
2017-01-07T07:06:42.674Z,97.09
2017-01-07T07:07:53.373Z,97.38
2017-01-07T07:09:04.090Z,97
2017-01-07T07:10:14.819Z,97.47
2017-01-07T07:11:25.533Z,97.09
2017-01-07T07:12:36.236Z,97.66
2017-01-07T07:13:46.953Z,97.47
2017-01-07T07:14:57.670Z,97.28
2017-01-07T07:16:08.366Z,96.91
2017-01-07T07:17:19.072Z,97.19
2017-01-07T07:18:29.766Z,96.91
2017-01-07T07:19:40.463Z,97.09
2017-01-07T07:20:51.165Z,97.09
2017-01-07T07:22:01.875Z,97.28
2017-01-07T07:23:12.629Z,97.56
2017-01-07T07:24:23.325Z,97.24
2017-01-07T07:25:34.045Z,97.75
2017-01-07T07:26:44.757Z,97.19
2017-01-07T07:27:55.480Z,97.75
2017-01-07T07:29:06.201Z,97.28
2017-01-07T07:30:16.919Z,97.38
2017-01-07T07:31:27.647Z,97.14
2017-01-07T07:32:38.394Z,97.38
2017-01-07T07:33:49.106Z,97.71
2017-01-07T07:34:59.806Z,97.9
2017-01-07T07:36:10.534Z,97.61
2017-01-07T07:37:21.262Z,97.47
2017-01-07T07:38:31.978Z,97.85
2017-01-07T07:39:42.696Z,97.66
2017-01-07T07:40:53.419Z,97.8
2017-01-07T07:42:04.139Z,97.56
2017-01-07T07:43:14.850Z,97.19
2017-01-07T07:44:25.571Z,97.24
2017-01-07T07:45:36.282Z,97.8
2017-01-07T07:46:47.024Z,97.19
2017-01-07T07:47:57.716Z,97.05
2017-01-07T07:49:08.416Z,97.33
2017-01-07T07:50:19.125Z,97.05
2017-01-07T07:51:29.829Z,97.05
2017-01-07T07:52:40.555Z,97.33
2017-01-07T07:53:51.267Z,97.14
2017-01-07T07:55:02.035Z,97.71
2017-01-07T07:56:12.733Z,97.33
2017-01-07T07:57:23.455Z,97.14
2017-01-07T07:58:34.176Z,97.33
2017-01-07T07:59:44.875Z,97.61
2017-01-07T08:00:55.652Z,97.99
2017-01-07T08:02:06.388Z,97.61
2017-01-07T08:03:17.082Z,97.8
2017-01-07T08:04:27.764Z,97.43
2017-01-07T08:05:38.483Z,97.8
2017-01-07T08:06:49.222Z,97.43
2017-01-07T08:07:59.947Z,97.52
2017-01-07T08:09:10.660Z,97.05
2017-01-07T08:10:21.385Z,97.05
2017-01-07T08:11:32.113Z,97.24
2017-01-07T08:12:42.836Z,97.14
2017-01-07T08:13:53.581Z,97.05
2017-01-07T08:15:04.298Z,97.24
2017-01-07T08:16:15.019Z,96.77
2017-01-07T08:17:25.718Z,96.3
2017-01-07T08:18:36.435Z,96.11
2017-01-07T08:19:47.132Z,96.67
2017-01-07T08:20:57.845Z,96.67
2017-01-07T08:22:08.543Z,96.58
2017-01-07T08:23:19.272Z,96.58
2017-01-07T08:24:29.982Z,96.3
2017-01-07T08:25:40.686Z,96.2
2017-01-07T08:26:51.382Z,96.39
2017-01-07T08:28:02.105Z,95.73
2017-01-07T08:29:12.825Z,96.01
2017-01-07T08:30:23.526Z,96.39
2017-01-07T08:31:34.245Z,96.11
2017-01-07T08:32:45.382Z,95.83
2017-01-07T08:33:56.115Z,95.92
2017-01-07T08:35:06.832Z,95.64
2017-01-07T08:36:17.550Z,95.83
2017-01-07T08:37:28.645Z,96.58
2017-01-07T08:38:39.386Z,96.39
2017-01-07T08:39:50.079Z,95.83
2017-01-07T08:41:00.803Z,95.54
2017-01-07T08:42:11.525Z,95.17
2017-01-07T08:43:22.241Z,95.17
2017-01-07T08:44:32.938Z,95.26
2017-01-07T08:45:43.658Z,95.83
2017-01-07T08:46:54.361Z,95.45
2017-01-07T08:48:05.078Z,95.26
2017-01-07T08:49:15.781Z,95.36
2017-01-07T08:50:26.502Z,95.26
2017-01-07T08:51:37.216Z,95.83
2017-01-07T08:52:47.950Z,95.83
2017-01-07T08:53:58.691Z,95.83
2017-01-07T08:55:09.424Z,95.26
2017-01-07T08:56:20.145Z,95.17
2017-01-07T08:57:30.873Z,95.54
2017-01-07T08:58:41.593Z,95.17
2017-01-07T08:59:52.332Z,94.98
2017-01-07T09:01:03.082Z,94.79
2017-01-07T09:02:13.803Z,95.07
2017-01-07T09:03:24.533Z,94.69
2017-01-07T09:04:35.266Z,95.26
2017-01-07T09:05:45.997Z,94.98
2017-01-07T09:06:56.735Z,95.26
2017-01-07T09:08:07.454Z,95.17
2017-01-07T09:09:18.160Z,95.17
2017-01-07T09:10:28.877Z,94.98
2017-01-07T09:11:39.598Z,94.98
2017-01-07T09:12:50.322Z,95.73
2017-01-07T09:14:01.021Z,95.26
2017-01-07T09:15:11.761Z,95.92
2017-01-07T09:16:22.478Z,95.92
2017-01-07T09:17:33.227Z,95.45
2017-01-07T09:18:43.943Z,94.79
2017-01-07T09:19:54.673Z,94.88
2017-01-07T09:21:05.368Z,94.41
2017-01-07T09:22:16.085Z,93.56
2017-01-07T09:23:26.808Z,94.03
2017-01-07T09:24:37.502Z,94.13
2017-01-07T09:25:48.200Z,94.32
2017-01-07T09:26:58.920Z,94.51
2017-01-07T09:28:09.642Z,94.51
2017-01-07T09:29:20.381Z,94.65
2017-01-07T09:30:31.086Z,94.79
2017-01-07T09:31:41.832Z,94.36
2017-01-07T09:32:52.523Z,94.36
2017-01-07T09:34:03.247Z,93.89
2017-01-07T09:35:13.944Z,93.13
2017-01-07T09:36:24.642Z,93.13
2017-01-07T09:37:35.349Z,93.23
2017-01-07T09:38:46.073Z,93.7
2017-01-07T09:39:56.773Z,93.8
2017-01-07T09:41:07.498Z,93.89
2017-01-07T09:42:18.234Z,93.51
2017-01-07T09:43:28.937Z,93.42
2017-01-07T09:44:39.649Z,93.51
2017-01-07T09:45:50.370Z,93.04
2017-01-07T09:47:01.066Z,93.23
2017-01-07T09:48:11.766Z,93.13
2017-01-07T09:49:22.508Z,93.04
2017-01-07T09:50:33.241Z,92.19
2017-01-07T09:51:43.957Z,92.95
2017-01-07T09:52:54.650Z,93.04
2017-01-07T09:54:05.402Z,93.42
2017-01-07T09:55:16.122Z,93.04
2017-01-07T09:56:26.837Z,92.76
2017-01-07T09:57:37.555Z,93.04
2017-01-07T09:58:48.276Z,93.23
2017-01-07T09:59:58.979Z,93.42
2017-01-07T10:01:09.679Z,92.38
2017-01-07T10:02:20.399Z,92.47
2017-01-07T10:03:31.141Z,92.19
2017-01-07T10:04:41.840Z,92.66
2017-01-07T10:05:52.552Z,92.66
2017-01-07T10:07:03.251Z,92.57
2017-01-07T10:08:13.971Z,92.29
2017-01-07T10:09:24.727Z,92.29
2017-01-07T10:10:35.418Z,92.19
2017-01-07T10:11:46.131Z,91.82
2017-01-07T10:12:56.828Z,91.63
2017-01-07T10:14:07.534Z,91.25
2017-01-07T10:15:18.276Z,92
2017-01-07T10:16:28.997Z,92.1
2017-01-07T10:17:39.714Z,91.82
2017-01-07T10:18:50.439Z,91.72
2017-01-07T10:20:01.156Z,91.72
2017-01-07T10:21:11.880Z,92.38
2017-01-07T10:22:22.584Z,92.1
2017-01-07T10:23:33.303Z,91.91
2017-01-07T10:24:44.036Z,92.19
2017-01-07T10:25:54.767Z,91.82
2017-01-07T10:27:05.856Z,91.91
2017-01-07T10:28:16.582Z,92
2017-01-07T10:29:27.303Z,92.1
2017-01-07T10:30:38.004Z,92
2017-01-07T10:31:48.725Z,91.44
2017-01-07T10:32:59.461Z,91.25
2017-01-07T10:34:10.216Z,91.25
2017-01-07T10:35:20.933Z,91.82
2017-01-07T10:36:31.637Z,92.1
2017-01-07T10:37:42.377Z,92.1
2017-01-07T10:38:53.112Z,91.82
2017-01-07T10:40:03.816Z,91.53
2017-01-07T10:41:14.530Z,91.35
2017-01-07T10:42:25.230Z,91.35
2017-01-07T10:43:35.950Z,91.06
2017-01-07T10:44:46.655Z,91.25
2017-01-07T10:45:57.413Z,91.72
2017-01-07T10:47:08.146Z,90.97
2017-01-07T10:48:18.882Z,91.25
2017-01-07T10:49:29.618Z,91.16
2017-01-07T10:50:40.324Z,91.06
2017-01-07T10:51:51.045Z,90.87
2017-01-07T10:53:01.769Z,91.16
2017-01-07T10:54:12.500Z,91.72
2017-01-07T10:55:23.218Z,91.53
2017-01-07T10:56:33.915Z,91.06
2017-01-07T10:57:44.637Z,91.06
2017-01-07T10:58:55.374Z,90.97
2017-01-07T11:00:06.100Z,91.06
2017-01-07T11:01:16.827Z,90.97
2017-01-07T11:02:27.538Z,90.97
2017-01-07T11:03:38.290Z,90.97
2017-01-07T11:04:49.013Z,90.87
2017-01-07T11:05:59.732Z,91.06
2017-01-07T11:07:10.477Z,90.97
2017-01-07T11:08:21.190Z,90.87
2017-01-07T11:09:31.898Z,90.59
2017-01-07T11:10:42.622Z,90.21
2017-01-07T11:11:53.341Z,90.5
2017-01-07T11:13:04.059Z,90.5
2017-01-07T11:14:14.774Z,90.21
2017-01-07T11:15:25.476Z,90.68
2017-01-07T11:16:36.213Z,90.5
2017-01-07T11:17:46.917Z,90.97
2017-01-07T11:18:57.630Z,91.06
2017-01-07T11:20:08.355Z,90.68
2017-01-07T11:21:19.072Z,90.87
2017-01-07T11:22:29.768Z,90.21
2017-01-07T11:23:40.447Z,90.5
2017-01-07T11:24:51.160Z,90.5
2017-01-07T11:26:01.881Z,90.5
2017-01-07T11:27:12.606Z,91.16
2017-01-07T11:28:23.353Z,90.87
2017-01-07T11:29:34.084Z,90.31
2017-01-07T11:30:44.828Z,90.4
2017-01-07T11:31:55.921Z,90.12
2017-01-07T11:33:06.662Z,90.21
2017-01-07T11:34:17.387Z,90.02
2017-01-07T11:35:28.088Z,90.02
2017-01-07T11:36:38.807Z,89.74
2017-01-07T11:37:49.527Z,89.55
2017-01-07T11:39:00.225Z,89.17
2017-01-07T11:40:10.946Z,89.36
2017-01-07T11:41:21.691Z,89.27
2017-01-07T11:42:32.409Z,89.64
2017-01-07T11:43:43.136Z,89.55
2017-01-07T11:44:53.869Z,89.64
2017-01-07T11:46:04.568Z,89.36
2017-01-07T11:47:15.311Z,90.12
2017-01-07T11:48:26.019Z,90.4
2017-01-07T11:49:36.735Z,90.5
2017-01-07T11:50:47.457Z,90.31
2017-01-07T11:51:58.181Z,90.02
2017-01-07T11:53:08.916Z,89.83
2017-01-07T11:54:19.624Z,89.83
2017-01-07T11:55:30.334Z,89.55
2017-01-07T11:56:41.058Z,89.17
2017-01-07T11:57:51.776Z,88.79
2017-01-07T11:59:02.507Z,89.27
2017-01-07T12:00:13.222Z,89.27
2017-01-07T12:01:23.972Z,88.42
2017-01-07T12:02:34.695Z,88.51
2017-01-07T12:03:45.434Z,88.7
2017-01-07T12:04:56.156Z,88.89
2017-01-07T12:06:06.856Z,89.59
2017-01-07T12:07:17.570Z,89.5
2017-01-07T12:08:28.295Z,90.16
2017-01-07T12:09:38.999Z,90.07
2017-01-07T12:10:49.737Z,89.22
2017-01-07T12:12:00.479Z,89.59
2017-01-07T12:13:11.200Z,89.31
2017-01-07T12:14:21.935Z,88.93
2017-01-07T12:15:32.700Z,88.46
2017-01-07T12:16:43.416Z,87.99
2017-01-07T12:17:54.138Z,88.18
2017-01-07T12:19:04.864Z,87.99
2017-01-07T12:20:15.577Z,88.65
2017-01-07T12:21:26.281Z,89.12
2017-01-07T12:22:37.027Z,88.46
2017-01-07T12:23:47.768Z,88.93
2017-01-07T12:24:58.519Z,89.4
2017-01-07T12:26:09.241Z,90.07
2017-01-07T12:27:19.987Z,90.64
2017-01-07T12:28:30.712Z,91.01
2017-01-07T12:29:41.446Z,91.67
2017-01-07T12:30:52.174Z,91.2
2017-01-07T12:32:02.925Z,92.05
2017-01-07T12:33:13.646Z,92.71
2017-01-07T12:34:24.366Z,93.18
2017-01-07T12:35:35.105Z,93.42
2017-01-07T12:36:45.834Z,93.66
2017-01-07T12:37:56.543Z,93.66
2017-01-07T12:39:07.274Z,93.84
2017-01-07T12:40:18.014Z,94.08
2017-01-07T12:41:28.732Z,93.89
2017-01-07T12:42:39.460Z,93.66
2017-01-07T12:43:50.185Z,93.61
2017-01-07T12:45:00.894Z,93.89
2017-01-07T12:46:11.640Z,94.55
2017-01-07T12:47:22.790Z,94.84
2017-01-07T12:48:33.494Z,94.93
2017-01-07T12:49:44.212Z,95.4
2017-01-07T12:50:54.958Z,95.64
2017-01-07T12:52:05.700Z,94.84
2017-01-07T12:53:16.429Z,95.26
2017-01-07T12:54:27.174Z,95.31
2017-01-07T12:55:37.894Z,95.97
2017-01-07T12:56:48.630Z,95.5
2017-01-07T12:57:59.377Z,95.17
2017-01-07T12:59:10.085Z,95.03
2017-01-07T13:00:20.805Z,95.31
2017-01-07T13:01:31.550Z,95.54
2017-01-07T13:02:42.289Z,95.31
2017-01-07T13:03:53.015Z,95.12
2017-01-07T13:05:03.757Z,95.31
2017-01-07T13:06:14.535Z,95.12
2017-01-07T13:07:25.276Z,95.31
2017-01-07T13:08:35.995Z,94.93
2017-01-07T13:09:46.736Z,95.31
2017-01-07T13:10:57.437Z,96.15
2017-01-07T13:12:08.159Z,96.81
2017-01-07T13:13:18.887Z,97.48
2017-01-07T13:14:29.608Z,97.19
2017-01-07T13:15:40.346Z,97
2017-01-07T13:16:51.050Z,96.34
2017-01-07T13:18:01.770Z,96.72
2017-01-07T13:19:12.514Z,96.63
2017-01-07T13:20:23.252Z,97.19
2017-01-07T13:21:33.973Z,97.19
2017-01-07T13:22:44.694Z,97.48
2017-01-07T13:23:55.445Z,97.57
2017-01-07T13:25:06.186Z,96.63
2017-01-07T13:26:16.910Z,97.19
2017-01-07T13:27:27.653Z,97.38
2017-01-07T13:28:38.379Z,96.81
2017-01-07T13:29:49.095Z,97.19
2017-01-07T13:30:59.817Z,96.44
2017-01-07T13:32:10.540Z,97
2017-01-07T13:33:21.241Z,96.72
2017-01-07T13:34:31.987Z,96.91
2017-01-07T13:35:42.704Z,97.48
2017-01-07T13:36:53.409Z,97.38
2017-01-07T13:38:04.146Z,97.1
2017-01-07T13:39:14.900Z,97.38
2017-01-07T13:40:25.609Z,97.29
2017-01-07T13:41:36.316Z,97.48
2017-01-07T13:42:47.035Z,98.04
2017-01-07T13:43:57.756Z,98.23
2017-01-07T13:45:08.454Z,98.33
2017-01-07T13:46:19.164Z,98.23
2017-01-07T13:47:29.885Z,98.42
2017-01-07T13:48:40.607Z,98.71
2017-01-07T13:49:51.321Z,99.46
2017-01-07T13:51:02.050Z,98.99
2017-01-07T13:52:12.757Z,99.08
2017-01-07T13:53:23.475Z,98.52
2017-01-07T13:54:34.188Z,98.42
2017-01-07T13:55:44.897Z,97.67
2017-01-07T13:56:55.612Z,98.14
2017-01-07T13:58:06.326Z,97.57
2017-01-07T13:59:17.054Z,98.42
2017-01-07T14:00:27.799Z,98.23
2017-01-07T14:01:38.521Z,97.76
2017-01-07T14:02:49.245Z,97.95
2017-01-07T14:03:59.955Z,98.61
2017-01-07T14:05:10.651Z,98.99
2017-01-07T14:06:21.359Z,99.46
2017-01-07T14:07:32.093Z,98.9
2017-01-07T14:08:42.815Z,98.9
2017-01-07T14:09:53.522Z,99.46
2017-01-07T14:11:04.235Z,99.65
2017-01-07T14:12:14.963Z,99.27
2017-01-07T14:13:25.677Z,98.99
2017-01-07T14:14:36.402Z,98.71
2017-01-07T14:15:47.144Z,99.18
2017-01-07T14:16:57.869Z,99.27
2017-01-07T14:18:08.608Z,99.74
2017-01-07T14:19:19.308Z,99.99
2017-01-07T14:20:30.412Z,99.99
2017-01-07T14:21:41.124Z,99.99
2017-01-07T14:22:51.832Z,99.99
2017-01-07T14:24:02.566Z,99.99
2017-01-07T14:25:13.288Z,99.99
2017-01-07T14:26:24.008Z,99.99
2017-01-07T14:27:34.730Z,99.99
2017-01-07T14:28:45.483Z,99.99
2017-01-07T14:29:56.218Z,99.99
2017-01-07T14:31:06.918Z,99.99
2017-01-07T14:32:17.647Z,99.99
2017-01-07T14:33:28.366Z,99.99
2017-01-07T14:34:39.080Z,99.99
2017-01-07T14:35:49.806Z,99.99
2017-01-07T14:37:00.503Z,99.99
2017-01-07T14:38:11.218Z,99.99
2017-01-07T14:39:21.946Z,99.99
2017-01-07T14:40:32.686Z,99.99
2017-01-07T14:41:43.411Z,99.99
2017-01-07T14:42:54.124Z,99.99
2017-01-07T14:44:04.851Z,99.99
2017-01-07T14:45:15.594Z,99.99
2017-01-07T14:46:26.315Z,99.99
2017-01-07T14:47:37.042Z,99.99
2017-01-07T14:48:47.757Z,99.99
2017-01-07T14:49:58.475Z,99.99
2017-01-07T14:51:09.178Z,99.99
2017-01-07T14:52:19.900Z,99.99
2017-01-07T14:53:30.620Z,99.99
2017-01-07T14:54:41.351Z,99.99
2017-01-07T14:55:52.108Z,99.99
2017-01-07T14:57:02.854Z,99.99
2017-01-07T14:58:13.587Z,99.99
2017-01-07T14:59:24.306Z,99.99
2017-01-07T15:00:35.046Z,99.99
2017-01-07T15:01:45.747Z,99.99
2017-01-07T15:02:56.438Z,99.99
2017-01-07T15:04:07.140Z,99.99
2017-01-07T15:05:17.859Z,99.99
2017-01-07T15:06:28.981Z,99.99
2017-01-07T15:07:39.700Z,99.99
2017-01-07T15:08:50.397Z,99.99
2017-01-07T15:10:01.107Z,99.99
2017-01-07T15:11:11.809Z,99.99
2017-01-07T15:12:22.510Z,99.99
2017-01-07T15:13:33.255Z,99.99
2017-01-07T15:14:43.973Z,99.99